Time,TemperatureF,DewpointF,PressureIn,WindDirection,WindDirectionDegrees,WindSpeedMPH,WindSpeedGustMPH,Humidity,HourlyPrecipIn,Conditions,Clouds,dailyrainin,SoftwareType,DateUTC
2013-04-02 00:00:00,71.6,61.7,29.85,SSE,159,13.0,16.0,71,0.00,,,0.00,Wunderground v.1.15,2013-04-02 05:00:00,
2013-04-02 00:10:00,71.4,61.5,29.84,SE,144,13.0,14.0,71,0.00,,,0.00,Wunderground v.1.15,2013-04-02 05:10:00,
2013-04-02 00:20:00,71.2,61.7,29.84,SSE,165,13.0,13.0,72,0.00,,,0.00,Wunderground v.1.15,2013-04-02 05:20:00,
2013-04-02 00:30:00,71.2,61.7,29.84,SSE,161,10.0,10.0,72,0.00,,,0.00,Wunderground v.1.15,2013-04-02 05:30:00,
2013-04-02 00:40:00,71.2,61.7,29.84,SSE,155,12.0,13.0,72,0.00,,,0.00,Wunderground v.1.15,2013-04-02 05:40:00,
2013-04-02 00:50:00,71.1,61.6,29.83,SSE,151,12.0,12.0,72,0.00,,,0.00,Wunderground v.1.15,2013-04-02 05:50:00,
2013-04-02 01:00:00,70.9,61.8,29.83,SSE,162,12.0,12.0,73,0.00,,,0.00,Wunderground v.1.15,2013-04-02 06:00:00,
2013-04-02 01:10:00,70.8,62.1,29.83,South,173,12.0,13.0,74,0.00,,,0.00,Wunderground v.1.15,2013-04-02 06:10:00,
2013-04-02 01:20:00,70.6,62.3,29.83,SSE,164,13.0,13.0,75,0.00,,,0.00,Wunderground v.1.15,2013-04-02 06:20:00,
2013-04-02 01:30:00,70.4,62.5,29.83,SSE,154,13.0,13.0,76,0.00,,,0.00,Wunderground v.1.15,2013-04-02 06:30:00,
2013-04-02 01:40:00,70.2,62.6,29.83,SSE,163,13.0,14.0,77,0.00,,,0.00,Wunderground v.1.15,2013-04-02 06:40:00,
2013-04-02 01:50:00,69.9,62.4,29.84,SSE,157,12.0,12.0,77,0.00,,,0.00,Wunderground v.1.15,2013-04-02 06:50:00,
2013-04-02 02:00:00,69.5,62.7,29.84,SSE,159,9.0,9.0,79,0.00,,,0.00,Wunderground v.1.15,2013-04-02 07:00:00,
2013-04-02 02:10:00,69.4,62.6,29.86,SE,128,7.0,7.0,79,0.00,,,0.00,Wunderground v.1.15,2013-04-02 07:10:00,
2013-04-02 02:20:00,69.4,62.6,29.88,ENE,70,1.0,1.0,79,0.00,,,0.00,Wunderground v.1.15,2013-04-02 07:20:00,
2013-04-02 02:30:00,69.3,62.5,29.88,ENE,67,4.0,8.0,79,0.00,,,0.00,Wunderground v.1.15,2013-04-02 07:30:00,
2013-04-02 02:40:00,69.6,62.8,29.88,East,91,5.0,8.0,79,0.00,,,0.00,Wunderground v.1.15,2013-04-02 07:40:00,
2013-04-02 02:50:00,69.7,62.5,29.88,East,90,7.0,8.0,78,0.00,,,0.00,Wunderground v.1.15,2013-04-02 07:50:00,
2013-04-02 03:00:00,69.7,62.9,29.88,East,93,7.0,9.0,79,0.00,,,0.00,Wunderground v.1.15,2013-04-02 08:00:00,
2013-04-02 03:10:00,69.5,62.7,29.89,SE,128,7.0,8.0,79,0.00,,,0.00,Wunderground v.1.15,2013-04-02 08:10:00,
2013-04-02 03:30:00,69.2,62.4,29.89,ESE,113,7.0,8.0,79,0.00,,,0.00,Wunderground v.1.15,2013-04-02 08:30:00,
2013-04-02 03:40:00,68.8,62.4,29.89,SE,138,8.0,11.0,80,0.00,,,0.00,Wunderground v.1.15,2013-04-02 08:40:00,
2013-04-02 03:50:00,68.6,62.2,29.88,ESE,113,10.0,10.0,80,0.00,,,0.00,Wunderground v.1.15,2013-04-02 08:50:00,
2013-04-02 04:00:00,68.5,62.1,29.88,SE,130,11.0,15.0,80,0.00,,,0.00,Wunderground v.1.15,2013-04-02 09:00:00,
2013-04-02 04:10:00,68.3,61.9,29.88,ESE,121,13.0,13.0,80,0.00,,,0.00,Wunderground v.1.15,2013-04-02 09:10:00,
2013-04-02 04:20:00,68.1,62.0,29.88,SE,130,12.0,16.0,81,0.00,,,0.00,Wunderground v.1.15,2013-04-02 09:20:00,
2013-04-02 04:30:00,68.1,61.7,29.88,SE,142,15.0,15.0,80,0.00,,,0.00,Wunderground v.1.15,2013-04-02 09:30:00,
2013-04-02 04:40:00,67.9,61.9,29.88,SE,146,12.0,18.0,81,0.00,,,0.00,Wunderground v.1.15,2013-04-02 09:40:00,
2013-04-02 04:50:00,67.7,61.7,29.88,SE,146,11.0,11.0,81,0.00,,,0.00,Wunderground v.1.15,2013-04-02 09:50:00,
2013-04-02 05:00:00,67.6,61.9,29.89,SSE,152,10.0,10.0,82,0.00,,,0.00,Wunderground v.1.15,2013-04-02 10:00:00,
2013-04-02 05:10:00,67.4,61.7,29.88,SE,128,10.0,13.0,82,0.00,,,0.00,Wunderground v.1.15,2013-04-02 10:10:00,
2013-04-02 05:20:00,67.4,61.7,29.87,SE,140,10.0,17.0,82,0.00,,,0.00,Wunderground v.1.15,2013-04-02 10:20:00,
2013-04-02 05:30:00,67.3,61.6,29.87,SE,146,14.0,14.0,82,0.00,,,0.00,Wunderground v.1.15,2013-04-02 10:30:00,
2013-04-02 05:40:00,67.1,61.8,29.87,SE,139,11.0,12.0,83,0.00,,,0.00,Wunderground v.1.15,2013-04-02 10:40:00,
2013-04-02 05:50:00,66.9,61.9,29.87,SSE,151,11.0,12.0,84,0.00,,,0.00,Wunderground v.1.15,2013-04-02 10:50:00,
2013-04-02 06:00:00,66.6,61.6,29.87,SSE,153,9.0,10.0,84,0.00,,,0.00,Wunderground v.1.15,2013-04-02 11:00:00,
2013-04-02 06:10:00,66.1,61.5,29.87,SSE,150,8.0,8.0,85,0.00,,,0.00,Wunderground v.1.15,2013-04-02 11:10:00,
2013-04-02 06:20:00,65.7,61.1,29.87,SSE,150,7.0,8.0,85,0.00,,,0.00,Wunderground v.1.15,2013-04-02 11:20:00,
2013-04-02 06:30:00,65.3,60.7,29.86,SSE,148,7.0,8.0,85,0.00,,,0.00,Wunderground v.1.15,2013-04-02 11:30:00,
2013-04-02 06:40:00,65.0,60.7,29.86,SSE,148,6.0,8.0,86,0.00,,,0.00,Wunderground v.1.15,2013-04-02 11:40:00,
2013-04-02 06:50:00,64.8,60.5,29.86,SE,146,6.0,8.0,86,0.00,,,0.00,Wunderground v.1.15,2013-04-02 11:50:00,
2013-04-02 07:00:00,64.5,60.2,29.86,SE,146,5.0,5.0,86,0.00,,,0.00,Wunderground v.1.15,2013-04-02 12:00:00,
2013-04-02 07:10:00,64.1,60.2,29.86,SE,146,0.0,8.0,87,0.00,,,0.00,Wunderground v.1.15,2013-04-02 12:10:00,
2013-04-02 07:20:00,64.0,60.4,29.86,SE,146,3.0,3.0,88,0.00,,,0.00,Wunderground v.1.15,2013-04-02 12:20:00,
2013-04-02 07:30:00,63.7,60.1,29.86,SE,146,0.0,8.0,88,0.00,,,0.00,Wunderground v.1.15,2013-04-02 12:30:00,
2013-04-02 07:40:00,63.7,60.4,29.86,SE,146,5.0,8.0,89,0.00,,,0.00,Wunderground v.1.15,2013-04-02 12:40:00,
2013-04-02 07:50:00,63.8,60.5,29.86,SSE,148,5.0,8.0,89,0.00,,,0.00,Wunderground v.1.15,2013-04-02 12:50:00,
2013-04-02 08:00:00,64.1,60.8,29.86,SSE,148,3.0,3.0,89,0.00,,,0.00,Wunderground v.1.15,2013-04-02 13:00:00,
2013-04-02 08:10:00,64.2,60.9,29.87,SSE,148,2.0,8.0,89,0.00,,,0.00,Wunderground v.1.15,2013-04-02 13:10:00,
2013-04-02 08:20:00,64.3,60.7,29.88,SE,145,3.0,8.0,88,0.00,,,0.00,Wunderground v.1.15,2013-04-02 13:20:00,
2013-04-02 08:30:00,64.5,61.2,29.88,SE,133,5.0,8.0,89,0.00,,,0.00,Wunderground v.1.15,2013-04-02 13:30:00,
2013-04-02 08:40:00,64.7,61.1,29.89,SE,130,3.0,3.0,88,0.00,,,0.00,Wunderground v.1.15,2013-04-02 13:40:00,
2013-04-02 08:50:00,64.9,61.3,29.90,SE,132,6.0,8.0,88,0.00,,,0.00,Wunderground v.1.15,2013-04-02 13:50:00,
2013-04-02 09:00:00,65.2,61.2,29.91,SE,138,7.0,8.0,87,0.00,,,0.00,Wunderground v.1.15,2013-04-02 14:00:00,
2013-04-02 09:10:00,65.3,61.3,29.91,SE,136,6.0,8.0,87,0.00,,,0.00,Wunderground v.1.15,2013-04-02 14:10:00,
2013-04-02 09:20:00,65.4,61.4,29.91,SE,136,3.0,8.0,87,0.00,,,0.00,Wunderground v.1.15,2013-04-02 14:20:00,
2013-04-02 09:30:00,65.4,61.4,29.91,SE,136,1.0,1.0,87,0.00,,,0.00,Wunderground v.1.15,2013-04-02 14:30:00,
2013-04-02 09:40:00,65.6,61.6,29.91,SE,136,1.0,1.0,87,0.00,,,0.00,Wunderground v.1.15,2013-04-02 14:40:00,
2013-04-02 09:50:00,66.1,61.5,29.91,SE,142,5.0,8.0,85,0.00,,,0.00,Wunderground v.1.15,2013-04-02 14:50:00,
2013-04-02 10:00:00,66.7,61.7,29.90,SSE,153,6.0,6.0,84,0.00,,,0.00,Wunderground v.1.15,2013-04-02 15:00:00,
2013-04-02 10:10:00,66.6,61.6,29.90,SSE,153,6.0,6.0,84,0.00,,,0.00,Wunderground v.1.15,2013-04-02 15:10:00,
2013-04-02 10:20:00,66.6,61.6,29.90,SSE,153,5.0,8.0,84,0.00,,,0.00,Wunderground v.1.15,2013-04-02 15:20:00,
2013-04-02 10:30:00,66.6,61.6,29.90,SSE,153,5.0,8.0,84,0.00,,,0.00,Wunderground v.1.15,2013-04-02 15:30:00,
2013-04-02 10:40:00,66.5,61.8,29.90,SSE,153,3.0,3.0,85,0.74,,,0.03,Wunderground v.1.15,2013-04-02 15:40:00,
2013-04-02 10:50:00,66.1,62.4,29.90,SSE,153,0.0,8.0,88,0.09,,,0.05,Wunderground v.1.15,2013-04-02 15:50:00,
2013-04-02 11:00:00,65.9,62.2,29.90,SSE,153,0.0,8.0,88,0.04,,,0.05,Wunderground v.1.15,2013-04-02 16:00:00,
2013-04-02 11:10:00,65.9,62.6,29.90,SSE,153,0.0,8.0,89,0.00,,,0.05,Wunderground v.1.15,2013-04-02 16:10:00,
2013-04-02 11:20:00,65.9,62.9,29.90,East,92,2.0,8.0,90,0.00,,,0.05,Wunderground v.1.15,2013-04-02 16:20:00,
2013-04-02 11:30:00,65.3,62.3,29.91,ESE,113,5.0,8.0,90,0.00,,,0.05,Wunderground v.1.15,2013-04-02 16:30:00,
2013-04-02 11:40:00,65.2,62.8,29.91,ESE,110,6.0,6.0,92,0.00,,,0.05,Wunderground v.1.15,2013-04-02 16:40:00,
2013-04-02 11:50:00,65.4,63.0,29.90,ESE,109,4.0,8.0,92,0.00,,,0.05,Wunderground v.1.15,2013-04-02 16:50:00,
2013-04-02 12:00:00,65.2,62.8,29.90,ESE,107,5.0,5.0,92,0.00,,,0.05,Wunderground v.1.15,2013-04-02 17:00:00,
2013-04-02 12:10:00,65.2,62.8,29.90,ESE,113,6.0,6.0,92,0.00,,,0.05,Wunderground v.1.15,2013-04-02 17:10:00,
2013-04-02 12:20:00,65.0,62.6,29.90,ESE,107,5.0,8.0,92,0.00,,,0.05,Wunderground v.1.15,2013-04-02 17:20:00,
2013-04-02 12:30:00,65.0,62.9,29.89,ESE,107,4.0,8.0,93,0.00,,,0.05,Wunderground v.1.15,2013-04-02 17:30:00,
2013-04-02 12:40:00,65.2,63.1,29.89,East,88,5.0,8.0,93,0.00,,,0.05,Wunderground v.1.15,2013-04-02 17:40:00,
2013-04-02 12:50:00,66.3,63.6,29.89,East,96,6.0,9.0,91,0.00,,,0.05,Wunderground v.1.15,2013-04-02 17:50:00,
2013-04-02 13:00:00,68.3,64.6,29.89,East,96,6.0,9.0,88,0.00,,,0.05,Wunderground v.1.15,2013-04-02 18:00:00,
2013-04-02 13:10:00,69.0,64.6,29.89,East,91,6.0,6.0,86,0.00,,,0.05,Wunderground v.1.15,2013-04-02 18:10:00,
2013-04-02 13:20:00,69.8,64.4,29.88,East,94,7.0,7.0,83,0.00,,,0.05,Wunderground v.1.15,2013-04-02 18:20:00,
2013-04-02 13:30:00,70.4,64.6,29.86,East,81,8.0,8.0,82,0.00,,,0.05,Wunderground v.1.15,2013-04-02 18:30:00,
2013-04-02 13:40:00,71.5,65.7,29.86,ENE,78,7.0,7.0,82,0.00,,,0.05,Wunderground v.1.15,2013-04-02 18:40:00,
2013-04-02 13:50:00,72.1,65.2,29.87,East,84,6.0,8.0,79,0.00,,,0.05,Wunderground v.1.15,2013-04-02 18:50:00,
2013-04-02 14:00:00,71.6,64.7,29.86,ENE,72,8.0,12.0,79,0.00,,,0.05,Wunderground v.1.15,2013-04-02 19:00:00,
2013-04-02 14:10:00,70.8,64.3,29.85,ENE,75,9.0,9.0,80,0.00,,,0.05,Wunderground v.1.15,2013-04-02 19:10:00,
2013-04-02 14:20:00,70.9,64.4,29.85,East,93,11.0,12.0,80,0.00,,,0.05,Wunderground v.1.15,2013-04-02 19:20:00,
2013-04-02 14:30:00,70.6,63.8,29.84,East,90,11.0,11.0,79,0.00,,,0.05,Wunderground v.1.15,2013-04-02 19:30:00,
2013-04-02 14:40:00,69.9,64.2,29.84,East,92,10.0,12.0,82,0.00,,,0.05,Wunderground v.1.15,2013-04-02 19:40:00,
2013-04-02 14:50:00,71.1,63.9,29.83,East,97,10.0,10.0,78,0.00,,,0.05,Wunderground v.1.15,2013-04-02 19:50:00,
2013-04-02 15:00:00,70.4,63.9,29.84,ENE,77,11.0,14.0,80,0.00,,,0.05,Wunderground v.1.15,2013-04-02 20:00:00,
2013-04-02 15:10:00,69.7,63.6,29.84,ENE,78,11.0,11.0,81,0.00,,,0.05,Wunderground v.1.15,2013-04-02 20:10:00,
2013-04-02 15:20:00,69.4,63.7,29.84,ENE,74,9.0,14.0,82,0.00,,,0.05,Wunderground v.1.15,2013-04-02 20:20:00,
2013-04-02 15:30:00,68.9,63.2,29.84,East,79,9.0,9.0,82,0.00,,,0.05,Wunderground v.1.15,2013-04-02 20:30:00,
2013-04-02 15:40:00,68.4,61.3,29.84,East,84,3.0,8.0,78,0.00,,,0.05,Wunderground v.1.15,2013-04-02 20:40:00,
2013-04-02 15:50:00,62.3,54.3,29.83,NNW,340,4.0,14.0,75,0.00,,,0.05,Wunderground v.1.15,2013-04-02 20:50:00,
2013-04-02 16:00:00,60.2,54.7,29.83,NNW,348,3.0,3.0,82,0.00,,,0.05,Wunderground v.1.15,2013-04-02 21:00:00,
2013-04-02 16:10:00,59.2,54.0,29.81,North,5,6.0,8.0,83,0.00,,,0.05,Wunderground v.1.15,2013-04-02 21:10:00,
2013-04-02 16:20:00,59.3,53.5,29.83,NNW,333,8.0,13.0,81,0.00,,,0.05,Wunderground v.1.15,2013-04-02 21:20:00,
2013-04-02 16:30:00,57.7,52.6,29.83,North,5,9.0,9.0,83,0.00,,,0.05,Wunderground v.1.15,2013-04-02 21:30:00,
2013-04-02 16:40:00,57.9,52.8,29.83,NNW,336,7.0,8.0,83,0.00,,,0.05,Wunderground v.1.15,2013-04-02 21:40:00,
2013-04-02 16:50:00,58.0,52.9,29.83,North,355,3.0,3.0,83,0.00,,,0.05,Wunderground v.1.15,2013-04-02 21:50:00,
2013-04-02 17:00:00,58.0,52.9,29.82,North,350,1.0,9.0,83,0.00,,,0.05,Wunderground v.1.15,2013-04-02 22:00:00,
2013-04-02 17:10:00,58.0,53.5,29.83,NNW,345,6.0,8.0,85,0.00,,,0.05,Wunderground v.1.15,2013-04-02 22:10:00,
2013-04-02 17:20:00,57.9,53.1,29.83,North,350,7.0,9.0,84,0.00,,,0.05,Wunderground v.1.15,2013-04-02 22:20:00,
2013-04-02 17:30:00,58.2,53.4,29.83,NNW,340,7.0,8.0,84,0.00,,,0.05,Wunderground v.1.15,2013-04-02 22:30:00,
2013-04-02 17:40:00,58.0,52.5,29.83,North,355,7.0,9.0,82,0.00,,,0.05,Wunderground v.1.15,2013-04-02 22:40:00,
2013-04-02 17:50:00,57.5,52.4,29.83,NNW,344,8.0,8.0,83,0.00,,,0.05,Wunderground v.1.15,2013-04-02 22:50:00,
2013-04-02 18:10:00,56.7,51.9,29.82,NNE,18,9.0,9.0,84,0.00,,,0.05,Wunderground v.1.15,2013-04-02 23:10:00,
2013-04-02 18:20:00,56.2,51.4,29.83,North,355,8.0,8.0,84,0.00,,,0.05,Wunderground v.1.15,2013-04-02 23:20:00,
2013-04-02 18:30:00,55.8,51.4,29.83,North,11,8.0,8.0,85,0.00,,,0.05,Wunderground v.1.15,2013-04-02 23:30:00,
2013-04-02 18:40:00,55.7,51.3,29.82,NNE,13,8.0,11.0,85,0.00,,,0.05,Wunderground v.1.15,2013-04-02 23:40:00,
2013-04-02 18:50:00,55.0,50.6,29.83,North,5,8.0,8.0,85,0.00,,,0.05,Wunderground v.1.15,2013-04-02 23:50:00,
2013-04-02 19:00:00,54.3,50.2,29.83,NNE,12,8.0,8.0,86,0.00,,,0.05,Wunderground v.1.15,2013-04-03 00:00:00,
2013-04-02 19:10:00,53.7,49.6,29.85,North,9,7.0,7.0,86,0.00,,,0.05,Wunderground v.1.15,2013-04-03 00:10:00,
2013-04-02 19:20:00,53.0,49.2,29.86,North,5,8.0,8.0,87,0.00,,,0.05,Wunderground v.1.15,2013-04-03 00:20:00,
2013-04-02 19:30:00,52.4,48.9,29.86,NNE,17,9.0,9.0,88,0.00,,,0.05,Wunderground v.1.15,2013-04-03 00:30:00,
2013-04-02 19:40:00,51.9,48.5,29.87,North,5,9.0,9.0,88,0.00,,,0.05,Wunderground v.1.15,2013-04-03 00:40:00,
2013-04-02 19:50:00,50.9,47.8,29.87,North,360,10.0,10.0,89,0.00,,,0.05,Wunderground v.1.15,2013-04-03 00:50:00,
2013-04-02 20:00:00,50.4,47.6,29.89,NNE,12,9.0,9.0,90,0.00,,,0.05,Wunderground v.1.15,2013-04-03 01:00:00,
2013-04-02 20:10:00,49.9,47.4,29.88,NNE,19,10.0,14.0,91,0.00,,,0.05,Wunderground v.1.15,2013-04-03 01:10:00,
2013-04-02 20:20:00,49.4,47.2,29.88,NNE,14,11.0,12.0,92,0.00,,,0.05,Wunderground v.1.15,2013-04-03 01:20:00,
2013-04-02 20:40:00,48.9,47.0,29.87,NNW,345,9.0,9.0,93,0.14,,,0.07,Wunderground v.1.15,2013-04-03 01:40:00,
2013-04-02 20:50:00,48.7,46.8,29.86,NNE,13,7.0,7.0,93,0.05,,,0.07,Wunderground v.1.15,2013-04-03 01:50:00,
2013-04-02 21:00:00,48.9,47.2,29.87,NE,35,7.0,7.0,94,0.00,,,0.07,Wunderground v.1.15,2013-04-03 02:00:00,
2013-04-02 21:10:00,49.1,47.4,29.89,North,355,5.0,5.0,94,0.00,,,0.07,Wunderground v.1.15,2013-04-03 02:10:00,
2013-04-02 21:20:00,49.0,47.3,29.92,NW,305,5.0,8.0,94,0.00,,,0.07,Wunderground v.1.15,2013-04-03 02:20:00,
2013-04-02 21:30:00,48.6,46.7,29.94,WNW,301,8.0,8.0,93,0.00,,,0.08,Wunderground v.1.15,2013-04-03 02:30:00,
2013-04-02 21:40:00,47.9,46.0,29.94,NW,319,8.0,8.0,93,0.14,,,0.11,Wunderground v.1.15,2013-04-03 02:40:00,
2013-04-02 21:50:00,47.3,45.7,29.95,NW,307,8.0,9.0,94,0.10,,,0.12,Wunderground v.1.15,2013-04-03 02:50:00,
2013-04-02 22:00:00,46.9,45.3,29.97,WNW,288,8.0,8.0,94,0.10,,,0.14,Wunderground v.1.15,2013-04-03 03:00:00,
2013-04-02 22:10:00,46.3,44.4,29.97,NW,326,8.0,8.0,93,0.10,,,0.16,Wunderground v.1.15,2013-04-03 03:10:00,
2013-04-02 22:20:00,45.9,44.3,30.00,West,277,8.0,8.0,94,0.06,,,0.17,Wunderground v.1.15,2013-04-03 03:20:00,
2013-04-02 22:30:00,45.5,43.9,30.01,NW,313,7.0,11.0,94,0.70,,,0.24,Wunderground v.1.15,2013-04-03 03:30:00,
2013-04-02 22:40:00,45.2,43.6,29.99,North,5,7.0,7.0,94,0.13,,,0.27,Wunderground v.1.15,2013-04-03 03:40:00,
2013-04-02 22:50:00,45.3,43.7,29.97,NNE,25,9.0,9.0,94,0.59,,,0.34,Wunderground v.1.15,2013-04-03 03:50:00,
2013-04-02 23:00:00,45.6,44.3,29.95,NNE,14,11.0,11.0,95,0.36,,,0.42,Wunderground v.1.15,2013-04-03 04:00:00,
2013-04-02 23:10:00,46.7,45.3,29.96,NE,39,8.0,8.0,95,0.28,,,0.47,Wunderground v.1.15,2013-04-03 04:10:00,
2013-04-02 23:20:00,46.4,45.0,29.95,NE,36,6.0,6.0,95,0.11,,,0.50,Wunderground v.1.15,2013-04-03 04:20:00,
2013-04-02 23:30:00,46.6,45.2,29.94,NNE,15,9.0,11.0,95,0.25,,,0.53,Wunderground v.1.15,2013-04-03 04:30:00,
2013-04-02 23:40:00,46.8,45.4,29.94,NNE,22,8.0,8.0,95,0.18,,,0.56,Wunderground v.1.15,2013-04-03 04:40:00,
2013-04-02 23:50:00,47.2,46.1,29.93,NE,40,8.0,8.0,96,0.20,,,0.59,Wunderground v.1.15,2013-04-03 04:50:00,